Accueil
METAR-TAF:

METAR-TAF

Aéroports :

Asahikawa Air Base, Japon

latitude: 43-48N, longitude: 142-22E, altitude: 115 m

Observation

Le bulletin a été fait il y a 5 heures et 27 minutes, à 23:30 UTC
Vent 1 kt de direction variable
Température -13°C
Humidité 78%
Pression 1027 hPa
Visibilité: 7000 m
Quelques nuages à une hauteur de 800 ft
Nuages épars à une hauteur de 1500 ft
faibles averses de neige

METAR: RJCA 252330Z VRB01KT 7000 -SHSN FEW008 SCT015 M13/M16 Q1027 RMK 1ST008 3ST015 A3033

Heure: 13:57 (04:57 UTC)


TAF: absent

Observations et prévisions météorologiques de plus de 4000 aéroports (messages METAR et TAF).

Les stations disponibles sont représentées par des disques jaunes et rouges sur la carte.

Passer la souris dessus pour voir le nom de la station.

Cliquer dessus pour voir les observations et prévisions météorologiques.

Pour changer de carte: cliquez sur les boutons verts avec une croix noire pour zoomer, sur le bouton vert avec un tiret pour effectuer un zoom arrière, ou sur les flèches vertes pour les cartes adjacentes.


METAR-TAF: